Time;durP1;ratioP1;P1;durP2;ratioP2;P2;SDS_P1;SDS_P2;PMS_P1;PMS_P2;Temp;Humidity;BMP_temperature;BMP_pressure;BME280_temperature;BME280_humidity;BME280_pressure;Samples;Min_cycle;Max_cycle;Signal;HPM_P1;HPM_P2
2023/06/17 00:01:57;;;;;;;5.72;4.43;;;;;;;17.28;53.96;101595.72;5053618;23;20068;-60
2023/06/17 00:04:22;;;;;;;4.70;4.22;;;;;;;17.26;54.55;101593.94;4981882;23;20065;-60
2023/06/17 00:06:47;;;;;;;6.38;4.57;;;;;;;17.15;54.75;101594.75;4853270;29;20416;-60
2023/06/17 00:09:13;;;;;;;5.60;4.25;;;;;;;17.06;55.36;101589.41;4851453;29;20025;-60
2023/06/17 00:14:08;;;;;;;;;;;;;;;17.00;52.88;101581.44;4850603;29;20814;-60
2023/06/17 00:19:04;;;;;;;5.40;4.10;;;;;;;16.84;56.28;101577.75;4976975;23;20060;-61
2023/06/17 00:21:29;;;;;;;7.80;4.00;;;;;;;16.84;56.23;101572.50;4858718;29;20036;-60
2023/06/17 00:23:55;;;;;;;5.97;3.90;;;;;;;16.80;56.56;101571.59;5325092;23;20339;-61
2023/06/17 00:26:20;;;;;;;5.13;3.90;;;;;;;16.73;57.28;101564.50;5141159;23;20059;-61
2023/06/17 00:28:45;;;;;;;4.80;3.75;;;;;;;16.64;57.98;101567.03;5036196;23;20058;-61
2023/06/17 00:31:11;;;;;;;4.65;3.85;;;;;;;16.57;58.37;101574.00;5065656;23;20110;-60
2023/06/17 00:36:07;;;;;;;6.85;4.32;;;;;;;16.42;56.90;101566.78;5014367;23;20110;-61
2023/06/17 00:38:33;;;;;;;6.15;4.60;;;;;;;16.43;56.97;101571.19;4975698;23;20056;-61
2023/06/17 00:40:58;;;;;;;5.63;4.18;;;;;;;16.40;56.97;101565.91;5018595;23;20634;-60
2023/06/17 00:43:23;;;;;;;6.50;4.60;;;;;;;16.39;56.39;101568.53;4838703;29;20035;-61
2023/06/17 00:48:28;;;;;;;5.43;4.10;;;;;;;16.32;57.27;101567.56;5086000;23;20052;-60
2023/06/17 00:53:25;;;;;;;6.47;3.97;;;;;;;16.17;58.69;101571.78;4943493;23;19928;-61
2023/06/17 00:55:51;;;;;;;5.90;3.70;;;;;;;16.05;59.20;101578.63;4856598;29;20418;-61
2023/06/17 00:58:18;;;;;;;5.40;4.20;;;;;;;15.95;60.54;101570.63;5173600;23;20039;-60
2023/06/17 01:00:43;;;;;;;6.65;3.80;;;;;;;15.93;61.01;101568.84;4952729;23;20061;-60
2023/06/17 01:03:09;;;;;;;6.35;4.38;;;;;;;15.89;60.37;101567.94;4981997;23;20477;-61
2023/06/17 01:05:34;;;;;;;6.05;4.15;;;;;;;15.86;59.77;101578.41;5138290;23;20020;-60
2023/06/17 01:08:12;;;;;;;4.40;3.80;;;;;;;15.89;59.74;101573.19;4941819;23;20405;-60
2023/06/17 01:10:48;;;;;;;4.75;4.00;;;;;;;15.79;60.08;101568.66;5124140;23;20024;-60
2023/06/17 01:13:15;;;;;;;4.90;3.88;;;;;;;15.80;60.06;101568.69;5187607;23;20301;-60
2023/06/17 01:15:41;;;;;;;5.28;3.92;;;;;;;15.82;59.83;101571.34;5031247;23;20184;-61
2023/06/17 01:18:07;;;;;;;6.00;4.47;;;;;;;15.79;59.97;101566.03;4853885;29;20036;-61
2023/06/17 01:23:10;;;;;;;4.72;4.25;;;;;;;15.69;59.83;101557.09;4998653;23;20071;-60
2023/06/17 01:25:37;;;;;;;4.95;3.90;;;;;;;15.64;60.04;101558.78;4945597;23;20049;-60
2023/06/17 01:28:19;;;;;;;5.60;4.30;;;;;;;15.48;61.00;101561.19;4855823;29;20037;-60
2023/06/17 01:30:45;;;;;;;5.95;4.45;;;;;;;15.24;62.41;101559.06;5196925;23;20061;-60
2023/06/17 01:33:15;;;;;;;4.95;4.38;;;;;;;15.15;63.06;101555.41;4973582;23;20080;-60
2023/06/17 01:41:09;;;;;;;5.05;4.22;;;;;;;15.15;63.18;101558.03;4937857;23;20058;-60
2023/06/17 01:43:36;;;;;;;5.82;4.57;;;;;;;15.09;63.53;101559.72;4920953;23;20073;-60
2023/06/17 01:46:04;;;;;;;5.45;4.30;;;;;;;15.07;63.40;101552.66;5068436;23;20053;-61
2023/06/17 01:51:00;;;;;;;6.07;4.60;;;;;;;15.09;62.85;101551.84;5229201;23;21280;-60
2023/06/17 01:53:25;;;;;;;6.15;4.68;;;;;;;15.09;63.05;101553.56;5030352;23;20425;-60
2023/06/17 02:00:51;;;;;;;6.60;4.50;;;;;;;14.99;63.11;101557.81;5073113;23;20092;-60
2023/06/17 02:03:17;;;;;;;6.53;4.50;;;;;;;14.94;63.10;101559.44;5052703;23;20508;-60
2023/06/17 02:05:42;;;;;;;6.05;4.72;;;;;;;14.93;62.82;101552.44;4961390;23;20067;-59
2023/06/17 02:08:09;;;;;;;6.25;4.80;;;;;;;14.92;63.00;101548.06;4863021;29;20039;-60
2023/06/17 02:10:35;;;;;;;6.70;4.45;;;;;;;14.95;62.99;101551.59;5061227;23;20136;-60
2023/06/17 02:13:03;;;;;;;7.43;5.43;;;;;;;14.95;63.00;101553.34;4917329;23;20136;-60
2023/06/17 02:15:28;;;;;;;5.30;4.78;;;;;;;14.94;63.02;101548.94;5018197;23;20028;-60
2023/06/17 02:17:55;;;;;;;6.70;4.95;;;;;;;14.95;63.08;101546.34;4851603;29;20502;-60
2023/06/17 02:20:20;;;;;;;6.05;4.85;;;;;;;14.94;63.26;101544.56;5132324;23;20120;-60
2023/06/17 02:22:45;;;;;;;6.38;4.65;;;;;;;14.89;62.92;101543.63;4869845;23;20022;-60
2023/06/17 02:25:11;;;;;;;10.75;5.15;;;;;;;14.84;63.05;101539.16;4997902;23;20053;-60
2023/06/17 02:27:36;;;;;;;5.38;4.40;;;;;;;14.80;62.95;101535.59;4973241;23;20071;-60
2023/06/17 02:30:02;;;;;;;7.05;4.30;;;;;;;14.73;63.04;101537.25;5140336;23;20113;-60
2023/06/17 02:32:27;;;;;;;5.47;4.30;;;;;;;14.72;63.29;101540.72;4923859;23;20592;-60
2023/06/17 02:37:22;;;;;;;6.25;4.50;;;;;;;14.67;63.43;101531.88;4849976;29;20053;-60
2023/06/17 02:39:47;;;;;;;5.68;4.45;;;;;;;14.65;63.51;101537.97;4900281;23;20089;-59
2023/06/17 02:44:42;;;;;;;6.05;5.18;;;;;;;14.59;64.13;101534.31;4852986;29;20049;-60
2023/06/17 02:47:07;;;;;;;6.28;5.00;;;;;;;14.51;64.39;101527.16;4911609;23;20585;-60
2023/06/17 02:57:24;;;;;;;6.32;5.50;;;;;;;14.34;65.32;101524.22;4963421;23;20071;-59
2023/06/17 03:02:18;;;;;;;5.90;5.30;;;;;;;14.08;66.46;101525.50;4857033;29;20060;-59
2023/06/17 03:04:43;;;;;;;6.57;4.97;;;;;;;14.03;66.84;101521.00;5119943;23;20027;-60
2023/06/17 03:07:11;;;;;;;5.80;5.22;;;;;;;14.01;66.56;101520.97;4860477;29;20511;-60
2023/06/17 03:09:37;;;;;;;5.85;5.25;;;;;;;14.08;66.25;101519.38;4858256;29;20035;-61
2023/06/17 03:14:35;;;;;;;7.20;5.10;;;;;;;14.08;65.76;101525.50;4858181;29;20064;-59
2023/06/17 03:22:05;;;;;;;7.43;5.47;;;;;;;14.04;66.08;101510.56;4937885;23;20061;-61
2023/06/17 03:32:05;;;;;;;6.47;5.43;;;;;;;13.96;66.57;101516.50;4988376;23;21176;-61
2023/06/17 03:34:32;;;;;;;7.18;5.65;;;;;;;13.92;66.75;101507.72;4867225;29;20062;-61
2023/06/17 03:39:28;;;;;;;6.28;5.68;;;;;;;13.78;67.27;101517.88;4896916;23;20061;-59
2023/06/17 03:41:53;;;;;;;8.32;6.50;;;;;;;13.74;67.56;101518.66;5022997;23;20065;-58
2023/06/17 03:44:18;;;;;;;6.40;5.80;;;;;;;13.70;67.70;101515.13;4853002;29;20025;-58
2023/06/17 03:49:17;;;;;;;7.72;6.63;;;;;;;13.54;68.81;101519.13;4972347;23;20052;-59
2023/06/17 03:51:42;;;;;;;7.38;6.68;;;;;;;13.54;69.12;101507.75;4973401;23;20109;-59
2023/06/17 03:54:08;;;;;;;8.15;7.03;;;;;;;13.54;69.24;101511.28;4857348;29;20404;-58
2023/06/17 03:56:33;;;;;;;7.55;6.65;;;;;;;13.57;69.25;101510.47;5023863;23;20098;-59
2023/06/17 04:01:31;;;;;;;8.40;7.43;;;;;;;13.60;69.41;101513.16;4921566;23;20066;-59
2023/06/17 04:03:56;;;;;;;9.15;7.75;;;;;;;13.57;69.52;101505.22;4831213;29;20046;-59
2023/06/17 04:06:21;;;;;;;8.90;7.85;;;;;;;13.54;69.70;101510.38;4946908;23;20076;-59
2023/06/17 04:11:18;;;;;;;9.43;8.52;;;;;;;13.42;71.86;101512.72;5033102;23;21120;-59
2023/06/17 04:13:44;;;;;;;12.65;9.18;;;;;;;13.30;72.15;101511.56;4952262;23;20060;-59
2023/06/17 04:18:40;;;;;;;10.77;9.05;;;;;;;13.18;72.52;101512.16;5012527;23;20509;-59
2023/06/17 04:23:36;;;;;;;11.85;10.68;;;;;;;13.03;73.63;101511.78;5010837;23;20035;-59
2023/06/17 04:28:34;;;;;;;11.70;10.50;;;;;;;13.12;74.08;101514.66;4937468;23;20058;-58
2023/06/17 04:31:00;;;;;;;12.25;10.98;;;;;;;13.22;73.70;101508.78;5035401;23;20057;-59
2023/06/17 04:33:26;;;;;;;12.05;10.85;;;;;;;13.32;73.31;101517.69;5016735;23;20501;-58
2023/06/17 04:35:51;;;;;;;13.02;11.73;;;;;;;13.41;73.47;101517.06;5227652;23;20060;-59
2023/06/17 04:38:17;;;;;;;13.95;12.65;;;;;;;13.44;74.00;101521.50;5031986;23;20058;-59
2023/06/17 04:43:12;;;;;;;14.13;12.85;;;;;;;13.52;73.44;101517.31;5077570;23;20028;-58
2023/06/17 04:55:49;;;;;;;16.80;15.20;;;;;;;13.64;73.45;101528.06;5088669;23;20475;-59
2023/06/17 05:00:44;;;;;;;17.00;15.50;;;;;;;13.73;73.11;101523.03;5125601;23;20324;-60
2023/06/17 05:03:10;;;;;;;16.92;15.38;;;;;;;13.76;73.26;101527.47;5081521;23;20471;-60
2023/06/17 05:08:06;;;;;;;16.77;15.38;;;;;;;13.86;72.87;101539.00;4853779;29;20045;-61
2023/06/17 05:10:32;;;;;;;17.02;15.52;;;;;;;13.90;73.64;101538.22;5242035;23;20065;-61
2023/06/17 05:12:57;;;;;;;17.00;15.48;;;;;;;13.95;73.81;101535.69;5043630;23;20196;-60
2023/06/17 05:15:22;;;;;;;17.80;16.20;;;;;;;13.99;74.17;101535.81;4856527;29;20025;-60
2023/06/17 05:20:17;;;;;;;17.25;15.68;;;;;;;14.11;73.68;101543.03;4890302;23;20061;-61
2023/06/17 05:22:42;;;;;;;17.42;15.73;;;;;;;14.18;73.45;101533.53;4864930;29;20044;-60
2023/06/17 05:30:17;;;;;;;17.60;16.00;;;;;;;14.31;73.90;101530.31;5091026;23;20050;-60
2023/06/17 05:32:42;;;;;;;18.02;16.33;;;;;;;14.35;74.48;101524.28;5025180;23;20071;-60
2023/06/17 05:35:07;;;;;;;18.30;16.50;;;;;;;14.41;74.52;101534.88;5204495;23;20069;-60
2023/06/17 05:40:08;;;;;;;18.70;16.90;;;;;;;14.54;73.88;101529.84;5158851;23;20058;-60
2023/06/17 05:42:33;;;;;;;19.10;17.20;;;;;;;14.60;74.39;101529.97;4836449;29;20662;-60
2023/06/17 05:44:59;;;;;;;18.48;16.88;;;;;;;14.67;74.28;101531.88;5002600;23;20095;-60
2023/06/17 05:49:56;;;;;;;19.45;17.65;;;;;;;14.83;74.64;101533.03;4905483;23;20080;-60
2023/06/17 05:57:24;;;;;;;19.17;17.48;;;;;;;15.14;75.20;101530.91;5093068;23;20111;-61
2023/06/17 05:59:50;;;;;;;16.48;14.98;;;;;;;15.18;70.66;101530.09;4856741;29;20625;-60
2023/06/17 06:02:15;;;;;;;18.80;17.08;;;;;;;15.25;75.03;101529.34;4856906;29;20509;-61
2023/06/17 06:04:40;;;;;;;19.05;17.35;;;;;;;15.32;75.51;101534.69;5057493;23;20092;-61
2023/06/17 06:09:40;;;;;;;18.00;16.23;;;;;;;15.54;74.06;101527.97;5202771;23;20060;-60
2023/06/17 06:12:06;;;;;;;18.42;16.65;;;;;;;15.68;74.61;101525.56;4972926;23;20035;-61
2023/06/17 06:17:10;;;;;;;18.98;17.27;;;;;;;15.93;74.83;101532.03;5128907;23;20032;-60
2023/06/17 06:22:11;;;;;;;18.17;16.52;;;;;;;16.17;74.03;101534.97;4848856;29;20505;-61
2023/06/17 06:24:36;;;;;;;18.02;16.15;;;;;;;16.33;73.23;101527.25;5228104;23;20024;-60
2023/06/17 06:29:35;;;;;;;17.90;16.30;;;;;;;16.65;71.58;101526.69;4996413;23;20102;-61
2023/06/17 06:39:36;;;;;;;17.25;15.65;;;;;;;17.17;69.81;101527.16;5186874;23;20064;-60
2023/06/17 06:42:01;;;;;;;17.85;16.25;;;;;;;17.39;69.35;101522.03;5074717;23;20028;-61
2023/06/17 06:44:26;;;;;;;17.98;16.27;;;;;;;17.55;68.32;101529.19;4943235;23;20505;-60
2023/06/17 06:46:54;;;;;;;16.38;14.88;;;;;;;17.68;69.02;101534.50;4866471;29;20045;-60
2023/06/17 06:49:21;;;;;;;14.73;13.07;;;;;;;17.81;68.62;101538.09;4865448;29;20037;-61
2023/06/17 06:51:46;;;;;;;16.23;14.68;;;;;;;17.95;67.97;101532.91;4864455;29;20037;-61
2023/06/17 06:54:11;;;;;;;17.13;14.40;;;;;;;18.03;65.81;101524.16;4868359;29;20068;-61
2023/06/17 06:56:37;;;;;;;15.88;14.40;;;;;;;18.08;67.21;101527.69;4867068;29;20657;-61
2023/06/17 06:59:02;;;;;;;17.17;15.50;;;;;;;18.18;65.50;101523.31;4865632;29;20030;-61
2023/06/17 07:01:27;;;;;;;13.00;11.70;;;;;;;18.26;63.19;101531.25;4935826;23;20016;-62
2023/06/17 07:03:53;;;;;;;16.02;14.43;;;;;;;18.33;65.53;101527.75;5233660;23;20039;-61
2023/06/17 07:11:16;;;;;;;15.07;13.68;;;;;;;18.70;62.59;101530.47;5103916;23;19908;-61
2023/06/17 07:13:41;;;;;;;14.43;12.93;;;;;;;18.85;63.38;101526.94;5044011;23;20065;-61
2023/06/17 07:16:07;;;;;;;12.45;10.80;;;;;;;18.92;63.15;101522.59;5043709;23;20438;-61
2023/06/17 07:18:32;;;;;;;14.05;12.75;;;;;;;19.01;62.19;101527.84;4934448;23;20031;-61
2023/06/17 07:23:27;;;;;;;14.65;13.20;;;;;;;19.32;59.19;101526.94;4968014;23;20125;-61
2023/06/17 07:25:52;;;;;;;13.05;11.80;;;;;;;19.46;60.20;101522.50;4883637;23;20050;-62
2023/06/17 07:28:18;;;;;;;13.13;11.73;;;;;;;19.59;60.34;101532.16;4838042;29;20128;-63
2023/06/17 07:33:13;;;;;;;12.95;11.65;;;;;;;19.79;55.18;101528.63;4882010;23;20056;-96
2023/06/17 07:35:38;;;;;;;11.55;10.45;;;;;;;20.00;58.06;101524.13;4870424;29;20037;-96
2023/06/17 07:38:03;;;;;;;12.10;10.93;;;;;;;20.07;56.33;101526.72;4869436;23;20060;-61
2023/06/17 07:42:58;;;;;;;9.38;8.48;;;;;;;20.35;55.61;101525.69;5150458;23;20069;-61
2023/06/17 07:45:24;;;;;;;12.23;11.07;;;;;;;20.41;53.83;101523.91;5032087;23;20069;-61
2023/06/17 07:47:49;;;;;;;12.40;11.30;;;;;;;20.44;55.05;101520.34;4968294;23;20482;-61
2023/06/17 07:50:14;;;;;;;12.23;11.10;;;;;;;20.52;53.94;101515.00;5030958;23;20049;-62
2023/06/17 07:52:40;;;;;;;11.02;9.63;;;;;;;20.64;51.59;101506.97;4860832;29;20560;-61
2023/06/17 07:55:08;;;;;;;10.27;9.30;;;;;;;20.78;55.66;101512.19;4987646;23;20634;-61
2023/06/17 08:00:13;;;;;;;;;;;;;;;21.06;53.14;101515.50;5208648;23;20056;-61
2023/06/17 08:05:08;;;;;;;;;;;;;;;21.37;50.39;101513.38;4981601;23;20028;-62
2023/06/17 08:07:33;;;;;;;10.70;9.60;;;;;;;21.56;49.55;101512.34;4953620;23;19927;-62
2023/06/17 08:09:58;;;;;;;11.00;9.90;;;;;;;21.62;49.00;101512.28;4977138;23;20160;-62
2023/06/17 08:12:24;;;;;;;9.40;8.50;;;;;;;21.75;49.95;101503.28;5012276;23;20058;-62
2023/06/17 08:14:51;;;;;;;9.35;8.45;;;;;;;21.91;50.03;101505.75;4940943;23;21945;-61
2023/06/17 08:20:06;;;;;;;7.72;7.03;;;;;;;22.23;48.82;101499.97;5046346;23;20060;-62
2023/06/17 08:22:31;;;;;;;7.82;7.05;;;;;;;22.44;48.65;101498.81;5225483;23;20741;-62
2023/06/17 08:27:27;;;;;;;7.97;7.18;;;;;;;22.69;46.37;101506.41;5114650;23;20049;-63
2023/06/17 08:29:52;;;;;;;8.13;7.43;;;;;;;22.70;43.39;101501.06;5038864;23;20052;-62
2023/06/17 08:32:17;;;;;;;7.18;6.47;;;;;;;22.90;46.11;101502.53;4971613;23;20675;-62
2023/06/17 08:34:43;;;;;;;6.57;5.87;;;;;;;23.03;45.55;101498.75;4857997;29;20037;-63
2023/06/17 08:37:09;;;;;;;6.40;5.80;;;;;;;23.09;40.89;101497.75;4858604;29;20294;-62
2023/06/17 08:39:39;;;;;;;6.75;5.85;;;;;;;23.16;43.10;101495.88;5032161;23;20324;-96
2023/06/17 08:45:53;;;;;;;5.65;5.05;;;;;;;23.42;43.51;101495.41;4876619;29;20081;-96
2023/06/17 08:48:27;;;;;;;5.57;4.85;;;;;;;23.57;42.31;101496.88;4886990;29;20035;-96
2023/06/17 08:51:10;;;;;;;6.03;4.32;;;;;;;23.70;42.62;101500.16;4900401;29;20033;-96
2023/06/17 08:54:11;;;;;;;5.07;4.38;;;;;;;23.76;40.46;101495.56;4866959;29;20488;-96
2023/06/17 09:09:47;;;;;;;6.70;4.22;;;;;;;24.43;40.73;101497.69;4905082;23;20061;-61
2023/06/17 09:12:12;;;;;;;5.45;4.50;;;;;;;24.52;40.69;101493.03;5000800;23;20061;-61
2023/06/17 09:14:43;;;;;;;6.35;4.75;;;;;;;24.51;38.00;101485.97;4864123;29;20383;-63
2023/06/17 09:19:43;;;;;;;5.00;4.50;;;;;;;24.66;36.99;101496.25;5015984;23;20897;-61
2023/06/17 09:22:11;;;;;;;5.80;4.07;;;;;;;24.78;38.01;101495.06;4854993;29;20036;-61
2023/06/17 09:27:21;;;;;;;7.43;4.20;;;;;;;25.05;37.62;101496.16;5126983;23;20094;-62
2023/06/17 09:29:51;;;;;;;4.97;4.15;;;;;;;25.10;36.39;101499.59;5033436;23;20085;-96
2023/06/17 09:32:16;;;;;;;4.95;3.45;;;;;;;25.22;38.32;101501.03;5093589;23;20127;-62
2023/06/17 09:34:48;;;;;;;4.25;3.85;;;;;;;25.62;38.27;101496.41;5137719;23;20061;-62
2023/06/17 09:39:38;;;;;;;5.15;4.25;;;;;;;25.95;36.15;101483.84;5106813;23;20584;-62
2023/06/17 09:44:30;;;;;;;5.57;4.40;;;;;;;26.06;35.88;101488.03;5115483;23;20081;-62
2023/06/17 09:47:04;;;;;;;6.07;4.10;;;;;;;26.11;35.38;101478.91;4976892;23;20062;-61
2023/06/17 09:49:32;;;;;;;4.82;3.60;;;;;;;26.29;37.34;101481.97;5149490;23;20574;-61
2023/06/17 09:52:02;;;;;;;4.63;3.80;;;;;;;26.41;35.38;101481.53;4861883;29;20453;-61
2023/06/17 09:56:58;;;;;;;5.30;3.83;;;;;;;26.42;36.51;101482.41;5170564;23;20329;-61
2023/06/17 10:02:02;;;;;;;4.63;3.92;;;;;;;26.38;33.85;101484.31;4843216;29;20061;-61
2023/06/17 10:04:27;;;;;;;4.22;3.83;;;;;;;26.39;34.92;101475.41;5178016;23;20060;-60
2023/06/17 10:06:53;;;;;;;5.90;3.53;;;;;;;26.46;36.51;101479.63;5035440;23;20543;-61
2023/06/17 10:09:19;;;;;;;4.82;3.97;;;;;;;26.54;34.17;101471.34;4942196;23;20312;-60
2023/06/17 10:11:50;;;;;;;4.38;3.72;;;;;;;26.64;36.89;101472.75;4955834;23;20057;-61
2023/06/17 10:14:23;;;;;;;5.68;3.83;;;;;;;26.84;34.85;101466.78;5005536;23;20072;-60
2023/06/17 10:19:23;;;;;;;4.65;3.67;;;;;;;27.12;33.23;101468.47;4970526;23;20073;-61
2023/06/17 10:21:52;;;;;;;7.00;5.20;;;;;;;27.09;32.87;101463.22;5005155;23;20767;-62
2023/06/17 10:24:18;;;;;;;4.88;4.05;;;;;;;27.05;32.52;101465.13;5065063;23;20049;-62
2023/06/17 10:26:44;;;;;;;6.03;3.85;;;;;;;27.15;31.37;101460.31;5110876;23;20057;-62
2023/06/17 10:34:21;;;;;;;4.90;3.80;;;;;;;27.31;31.54;101451.75;4870859;23;20061;-62
2023/06/17 10:36:54;;;;;;;6.35;3.80;;;;;;;27.39;32.52;101457.72;4847822;29;20799;-63
2023/06/17 10:41:55;;;;;;;6.30;3.92;;;;;;;27.72;32.62;101449.34;5015474;23;20468;-63
2023/06/17 10:44:39;;;;;;;5.32;3.80;;;;;;;27.86;31.23;101455.03;4849854;29;20037;-62
2023/06/17 10:49:39;;;;;;;5.25;3.38;;;;;;;28.07;32.07;101447.97;5067068;23;20101;-63
2023/06/17 10:52:05;;;;;;;6.15;3.85;;;;;;;28.00;30.44;101445.63;4933021;23;20069;-63
2023/06/17 10:54:32;;;;;;;5.32;3.70;;;;;;;28.27;33.31;101449.84;4856083;29;20094;-63
2023/06/17 10:57:01;;;;;;;4.45;3.30;;;;;;;28.34;32.16;101449.59;4856924;29;20067;-62
2023/06/17 10:59:28;;;;;;;4.85;3.42;;;;;;;28.47;31.24;101448.13;4924711;23;20144;-61
2023/06/17 11:04:23;;;;;;;4.30;3.63;;;;;;;27.90;31.95;101439.72;4923734;23;20527;-96
2023/06/17 11:06:49;;;;;;;4.43;3.72;;;;;;;27.93;30.77;101435.09;4859653;29;20082;-96
2023/06/17 11:09:15;;;;;;;4.82;3.72;;;;;;;28.16;34.04;101437.84;4859907;29;20037;-96
2023/06/17 11:14:31;;;;;;;5.47;3.80;;;;;;;28.72;30.63;101431.03;4931359;23;20069;-61
2023/06/17 11:16:56;;;;;;;4.13;3.50;;;;;;;28.72;33.29;101436.41;4865844;29;20060;-61
2023/06/17 11:24:57;;;;;;;6.15;3.90;;;;;;;28.15;31.03;101426.22;4988037;23;20102;-60
2023/06/17 11:27:23;;;;;;;5.78;3.60;;;;;;;28.54;33.57;101422.81;5007044;23;20211;-60
2023/06/17 11:29:48;;;;;;;82.28;13.00;;;;;;;28.75;30.99;101418.38;5025393;23;20158;-63
2023/06/17 11:32:14;;;;;;;28.85;6.20;;;;;;;28.94;33.99;101418.44;4850805;29;20038;-64
2023/06/17 11:34:41;;;;;;;4.68;4.20;;;;;;;29.00;31.04;101411.91;4988476;23;20213;-64
2023/06/17 11:37:10;;;;;;;4.25;3.85;;;;;;;28.58;29.06;101416.38;4932684;23;1082847;-62
2023/06/17 11:39:36;;;;;;;5.18;3.92;;;;;;;28.33;30.01;101404.97;5181765;23;20065;-62
2023/06/17 11:42:02;;;;;;;3.92;3.53;;;;;;;28.49;33.62;101405.16;5033630;23;20049;-63
2023/06/17 11:44:32;;;;;;;4.70;4.20;;;;;;;28.80;30.59;101402.94;5041262;23;20060;-62
2023/06/17 11:57:09;;;;;;;5.35;3.75;;;;;;;29.71;30.01;101381.81;5024336;23;20061;-65
2023/06/17 11:59:35;;;;;;;5.47;3.90;;;;;;;29.70;29.06;101384.56;4853286;29;20404;-65
2023/06/17 12:02:02;;;;;;;5.32;3.75;;;;;;;29.65;29.64;101374.06;5200411;23;20186;-63
2023/06/17 12:04:30;;;;;;;7.30;3.92;;;;;;;29.66;30.71;101376.66;5200983;23;20053;-62
2023/06/17 12:06:55;;;;;;;4.72;3.97;;;;;;;29.64;28.98;101373.16;5037416;23;20057;-63
2023/06/17 12:09:21;;;;;;;4.00;3.60;;;;;;;29.75;29.45;101374.47;5047209;23;20686;-62
2023/06/17 12:11:46;;;;;;;4.93;3.75;;;;;;;29.51;27.80;101376.53;4906662;23;20109;-62
2023/06/17 12:14:12;;;;;;;6.20;3.88;;;;;;;29.58;29.82;101376.16;4844858;29;20079;-64
2023/06/17 12:16:40;;;;;;;5.00;3.70;;;;;;;29.78;30.78;101371.66;5008074;23;20057;-63
2023/06/17 12:22:00;;;;;;;4.75;4.00;;;;;;;29.75;28.92;101371.78;5053116;23;20039;-62
2023/06/17 12:24:25;;;;;;;5.85;3.95;;;;;;;30.05;31.38;101371.25;4994563;23;20158;-63
2023/06/17 12:26:51;;;;;;;4.37;3.83;;;;;;;30.25;30.69;101367.56;4953792;23;20099;-66
2023/06/17 12:31:42;;;;;;;5.20;3.80;;;;;;;30.37;28.32;101363.38;5013859;23;20060;-61
2023/06/17 12:34:09;;;;;;;4.70;3.70;;;;;;;30.26;28.87;101363.94;5012077;23;20069;-64
2023/06/17 12:36:34;;;;;;;5.35;4.63;;;;;;;30.16;27.64;101356.31;4857273;29;20026;-64
2023/06/17 12:39:03;;;;;;;5.15;3.80;;;;;;;29.94;28.62;101356.53;5033281;23;20062;-64
2023/06/17 12:41:29;;;;;;;4.85;3.60;;;;;;;29.73;28.55;101347.69;5102926;23;20076;-63
2023/06/17 12:43:54;;;;;;;5.15;3.80;;;;;;;29.54;26.03;101347.72;5054128;23;21058;-64
2023/06/17 12:46:20;;;;;;;4.68;3.50;;;;;;;29.74;29.92;101353.94;5030381;23;20160;-62
2023/06/17 12:51:20;;;;;;;4.22;3.72;;;;;;;29.99;29.34;101343.72;4845119;29;20114;-64
2023/06/17 12:53:46;;;;;;;4.80;4.00;;;;;;;30.12;28.84;101349.34;5016953;23;20617;-62
2023/06/17 12:56:11;;;;;;;4.30;3.60;;;;;;;30.16;29.50;101342.03;4850672;29;20085;-63
2023/06/17 12:58:36;;;;;;;4.07;3.70;;;;;;;30.32;28.01;101345.66;4990805;23;20346;-61
2023/06/17 13:03:39;;;;;;;7.03;3.67;;;;;;;30.48;28.53;101344.91;4969406;23;20672;-63
2023/06/17 13:06:05;;;;;;;6.28;3.70;;;;;;;30.57;27.71;101346.22;5030662;23;20156;-64
2023/06/17 13:08:30;;;;;;;4.63;3.80;;;;;;;30.47;27.13;101345.84;5054768;23;20081;-62
2023/06/17 13:10:56;;;;;;;4.78;4.07;;;;;;;30.24;26.81;101342.50;5208526;23;20322;-60
2023/06/17 13:13:22;;;;;;;4.55;4.15;;;;;;;30.09;26.87;101338.75;5023588;23;20140;-62
2023/06/17 13:15:47;;;;;;;3.97;3.55;;;;;;;30.17;27.15;101335.69;4860755;29;20045;-63
2023/06/17 13:18:12;;;;;;;4.88;3.45;;;;;;;30.31;27.88;101334.97;4972007;23;20410;-63
2023/06/17 13:20:37;;;;;;;4.20;3.80;;;;;;;30.24;27.67;101336.25;5010915;23;20458;-64
2023/06/17 13:23:04;;;;;;;4.57;3.73;;;;;;;30.21;26.54;101329.19;4979838;23;20151;-63
2023/06/17 13:28:02;;;;;;;4.00;3.53;;;;;;;30.43;29.15;101331.69;4852230;29;20482;-69
2023/06/17 13:30:35;;;;;;;4.47;3.97;;;;;;;30.60;29.51;101336.16;4877385;23;20045;-96
2023/06/17 13:33:01;;;;;;;7.22;3.55;;;;;;;30.81;30.71;101342.22;4848131;29;20298;-96
2023/06/17 13:35:26;;;;;;;5.72;3.90;;;;;;;30.90;27.35;101334.63;4851524;29;20036;-95
2023/06/17 13:37:54;;;;;;;4.35;3.80;;;;;;;30.86;29.14;101333.91;4842740;29;20614;-96
2023/06/17 13:40:20;;;;;;;4.20;3.80;;;;;;;30.98;28.65;101337.75;4866407;29;20029;-96
2023/06/17 13:42:46;;;;;;;4.68;3.55;;;;;;;31.10;29.42;101337.13;4859960;29;20345;-96
2023/06/17 13:45:11;;;;;;;5.18;3.83;;;;;;;31.11;26.91;101332.59;4848510;29;20026;-96
2023/06/17 13:47:37;;;;;;;4.93;4.13;;;;;;;30.94;26.13;101325.44;4841482;29;20058;-96
2023/06/17 13:50:03;;;;;;;5.57;3.72;;;;;;;30.72;26.13;101320.31;4828166;29;20155;-96
2023/06/17 13:52:31;;;;;;;4.47;3.60;;;;;;;30.76;27.00;101324.59;4844873;29;20026;-96
2023/06/17 13:54:56;;;;;;;3.83;3.42;;;;;;;30.91;27.78;101320.19;4844785;29;20523;-96
2023/06/17 13:57:22;;;;;;;4.28;3.88;;;;;;;30.95;28.08;101321.75;5021702;23;20056;-62
2023/06/17 14:02:17;;;;;;;6.07;4.43;;;;;;;30.87;28.88;101324.88;4971617;23;20112;-62
2023/06/17 14:04:42;;;;;;;4.22;3.50;;;;;;;30.86;27.70;101328.53;4845770;29;20036;-62
2023/06/17 14:07:08;;;;;;;4.68;3.90;;;;;;;30.57;26.26;101333.63;5029024;23;20064;-63
2023/06/17 14:09:33;;;;;;;4.73;3.80;;;;;;;30.57;28.44;101324.72;5017614;23;20847;-63
2023/06/17 14:11:58;;;;;;;4.57;3.83;;;;;;;30.66;30.03;101322.41;4944426;23;20301;-63
2023/06/17 14:14:24;;;;;;;5.27;3.70;;;;;;;30.66;27.69;101327.78;5014925;23;20053;-64
2023/06/17 14:16:49;;;;;;;5.33;4.33;;;;;;;30.43;25.91;101325.44;4902943;23;20337;-65
2023/06/17 14:19:14;;;;;;;4.90;3.88;;;;;;;30.43;27.46;101328.13;4845971;29;20873;-66
2023/06/17 14:21:52;;;;;;;4.40;4.00;;;;;;;30.38;27.89;101322.09;4843801;29;20030;-65
2023/06/17 14:29:25;;;;;;;5.78;4.00;;;;;;;29.45;26.56;101321.31;5057472;23;20076;-65
2023/06/17 14:31:50;;;;;;;5.90;3.80;;;;;;;29.09;29.25;101311.34;5015333;23;20498;-64
2023/06/17 14:34:15;;;;;;;4.70;4.30;;;;;;;29.37;31.16;101312.75;5186644;23;20389;-64
2023/06/17 14:39:13;;;;;;;6.80;4.38;;;;;;;29.49;32.45;101314.84;4873402;23;20327;-66
2023/06/17 14:41:38;;;;;;;4.47;4.07;;;;;;;29.52;30.94;101312.00;4892792;23;20065;-64
2023/06/17 14:44:04;;;;;;;5.90;4.37;;;;;;;29.53;31.76;101307.50;4995226;23;20028;-66
2023/06/17 14:51:39;;;;;;;4.97;3.80;;;;;;;29.64;31.66;101303.34;5123503;23;20971;-65
2023/06/17 14:54:04;;;;;;;4.68;4.18;;;;;;;29.65;30.90;101297.03;5134307;23;20548;-64
2023/06/17 14:56:32;;;;;;;4.30;3.90;;;;;;;29.79;31.73;101293.66;5020997;23;21352;-64
2023/06/17 14:58:59;;;;;;;5.43;4.07;;;;;;;29.92;30.06;101293.06;5013128;23;20069;-67
2023/06/17 15:01:30;;;;;;;4.50;4.10;;;;;;;29.94;32.10;101292.06;5205080;23;20038;-64
2023/06/17 15:03:56;;;;;;;5.80;4.40;;;;;;;29.93;30.35;101292.97;5069215;23;20136;-66
2023/06/17 15:06:21;;;;;;;7.40;5.55;;;;;;;29.92;30.61;101293.94;4952823;23;20150;-66
2023/06/17 15:08:47;;;;;;;7.28;5.90;;;;;;;29.99;31.49;101284.59;4941129;23;20055;-96
2023/06/17 15:11:12;;;;;;;4.55;3.97;;;;;;;29.67;28.93;101284.38;4869828;29;20045;-96
2023/06/17 15:13:37;;;;;;;6.20;5.13;;;;;;;29.68;31.56;101287.97;4882156;29;20407;-95
2023/06/17 15:16:03;;;;;;;5.25;4.50;;;;;;;29.75;30.28;101292.09;4874568;29;20031;-95
2023/06/17 15:18:28;;;;;;;8.55;6.38;;;;;;;29.70;31.47;101286.06;4880890;29;20511;-96
2023/06/17 15:20:54;;;;;;;4.53;3.80;;;;;;;29.74;33.00;101289.47;4874949;29;20029;-96
2023/06/17 15:23:22;;;;;;;5.90;4.13;;;;;;;29.57;30.17;101280.41;4875575;29;20044;-95
2023/06/17 15:25:53;;;;;;;4.53;4.07;;;;;;;29.59;31.46;101286.59;4876943;29;21236;-96